createdAt,value
2019-01-26T00:00:55.716Z,44.40
2019-01-26T00:01:55.712Z,42.20
2019-01-26T00:02:55.698Z,45.60
2019-01-26T00:03:55.706Z,43.00
2019-01-26T00:04:55.677Z,44.20
2019-01-26T00:05:55.703Z,43.40
2019-01-26T00:06:55.656Z,44.60
2019-01-26T00:07:55.649Z,44.70
2019-01-26T00:08:55.676Z,43.80
2019-01-26T00:09:55.686Z,42.70
2019-01-26T00:10:55.612Z,47.00
2019-01-26T00:11:55.600Z,43.60
2019-01-26T00:12:55.590Z,44.00
2019-01-26T00:13:55.580Z,41.80
2019-01-26T00:14:55.568Z,40.40
2019-01-26T00:15:55.562Z,44.80
2019-01-26T00:16:55.542Z,44.90
2019-01-26T00:17:55.540Z,43.30
2019-01-26T00:18:55.524Z,41.70
2019-01-26T00:19:55.518Z,44.80
2019-01-26T00:20:55.514Z,42.50
2019-01-26T00:21:55.493Z,43.80
2019-01-26T00:22:55.483Z,45.10
2019-01-26T00:23:55.466Z,46.50
2019-01-26T00:24:55.492Z,45.00
2019-01-26T00:25:55.449Z,45.10
2019-01-26T00:26:55.438Z,44.20
2019-01-26T00:27:55.438Z,43.40
2019-01-26T00:28:55.413Z,44.30
2019-01-26T00:29:55.413Z,43.90
2019-01-26T00:30:55.411Z,46.10
2019-01-26T00:31:55.381Z,43.50
2019-01-26T00:32:55.373Z,45.40
2019-01-26T00:33:55.366Z,44.00
2019-01-26T00:34:55.351Z,42.60
2019-01-26T00:35:55.354Z,46.40
2019-01-26T00:36:55.338Z,46.50
2019-01-26T00:37:55.320Z,44.10
2019-01-26T00:38:55.304Z,44.70
2019-01-26T00:39:55.297Z,44.90
2019-01-26T00:40:55.283Z,42.60
2019-01-26T00:41:55.287Z,45.10
2019-01-26T00:42:55.262Z,47.10
2019-01-26T00:43:55.250Z,45.00
2019-01-26T00:44:55.240Z,43.80
2019-01-26T00:45:55.225Z,44.30
2019-01-26T00:46:55.223Z,44.30
2019-01-26T00:47:55.216Z,46.00
2019-01-26T00:48:55.203Z,46.50
2019-01-26T00:49:55.185Z,46.70
2019-01-26T00:50:55.174Z,48.00
2019-01-26T00:51:55.181Z,45.50
2019-01-26T00:52:55.157Z,45.60
2019-01-26T00:53:55.151Z,47.50
2019-01-26T00:54:55.130Z,48.30
2019-01-26T00:55:55.117Z,51.20
2019-01-26T00:56:55.110Z,49.30
2019-01-26T00:57:55.104Z,49.10
2019-01-26T00:58:55.090Z,49.70
2019-01-26T00:59:55.137Z,52.60
2019-01-26T01:00:55.062Z,50.10
2019-01-26T01:01:55.053Z,52.80
2019-01-26T01:02:55.042Z,48.60
2019-01-26T01:03:55.027Z,51.90
2019-01-26T01:04:55.023Z,49.60
2019-01-26T01:05:55.051Z,45.00
2019-01-26T01:06:54.995Z,49.90
2019-01-26T01:07:55.020Z,47.70
2019-01-26T01:08:54.974Z,50.40
2019-01-26T01:09:54.963Z,48.90
2019-01-26T01:10:54.992Z,49.70
2019-01-26T01:11:54.943Z,46.60
2019-01-26T01:12:54.932Z,48.50
2019-01-26T01:13:54.921Z,46.40
2019-01-26T01:14:54.947Z,49.90
2019-01-26T01:15:54.895Z,46.80
2019-01-26T01:16:54.885Z,47.90
2019-01-26T01:17:54.880Z,51.10
2019-01-26T01:18:54.893Z,48.70
2019-01-26T01:19:54.851Z,50.60
2019-01-26T01:20:54.939Z,49.90
2019-01-26T01:21:54.907Z,50.50
2019-01-26T01:22:54.824Z,51.10
2019-01-26T01:23:54.813Z,52.40
2019-01-26T01:24:54.802Z,48.60
2019-01-26T01:25:54.833Z,48.00
2019-01-26T01:26:54.775Z,51.40
2019-01-26T01:27:54.768Z,49.80
2019-01-26T01:28:54.759Z,49.00
2019-01-26T01:29:54.746Z,49.90
2019-01-26T01:30:54.731Z,48.60
2019-01-26T01:31:54.762Z,49.80
2019-01-26T01:32:54.714Z,50.20
2019-01-26T01:33:54.699Z,50.70
2019-01-26T01:34:54.778Z,50.40
2019-01-26T01:35:54.681Z,51.60
2019-01-26T01:36:54.722Z,54.50
2019-01-26T01:37:54.700Z,53.00
2019-01-26T01:38:54.643Z,49.60
2019-01-26T01:39:54.636Z,54.90
2019-01-26T01:40:54.620Z,57.30
2019-01-26T01:41:54.659Z,52.00
2019-01-26T01:42:54.599Z,50.50
2019-01-26T01:43:54.592Z,52.50
2019-01-26T01:44:54.580Z,54.50
2019-01-26T01:45:54.567Z,52.70
2019-01-26T01:46:54.556Z,51.20
2019-01-26T01:47:54.561Z,52.50
2019-01-26T01:48:54.537Z,50.40
2019-01-26T01:49:54.526Z,52.40
2019-01-26T01:50:54.512Z,50.00
2019-01-26T01:51:54.504Z,57.30
2019-01-26T01:52:54.530Z,52.50
2019-01-26T01:53:54.482Z,51.80
2019-01-26T01:54:54.538Z,53.40
2019-01-26T01:55:54.457Z,50.00
2019-01-26T01:56:54.450Z,50.40
2019-01-26T01:57:54.440Z,51.30
2019-01-26T01:58:54.469Z,48.20
2019-01-26T01:59:54.418Z,46.00
2019-01-26T02:00:54.408Z,48.60
2019-01-26T02:01:54.397Z,50.30
2019-01-26T02:02:54.380Z,51.10
2019-01-26T02:03:54.408Z,50.20
2019-01-26T02:04:54.358Z,50.10
2019-01-26T02:05:54.345Z,49.10
2019-01-26T02:06:54.347Z,46.30
2019-01-26T02:07:54.324Z,48.60
2019-01-26T02:08:54.319Z,54.20
2019-01-26T02:09:54.316Z,50.50
2019-01-26T02:10:54.343Z,49.10
2019-01-26T02:11:54.282Z,50.40
2019-01-26T02:12:54.274Z,49.10
2019-01-26T02:13:54.257Z,46.50
2019-01-26T02:14:54.252Z,46.40
2019-01-26T02:15:54.242Z,47.60
2019-01-26T02:16:54.274Z,46.80
2019-01-26T02:17:54.229Z,47.80
2019-01-26T02:18:54.205Z,50.00
2019-01-26T02:19:54.195Z,46.00
2019-01-26T02:20:54.186Z,47.90
2019-01-26T02:21:54.220Z,46.90
2019-01-26T02:22:54.162Z,50.60
2019-01-26T02:23:54.156Z,51.10
2019-01-26T02:24:54.166Z,54.80
2019-01-26T02:25:54.181Z,52.90
2019-01-26T02:26:54.118Z,49.60
2019-01-26T02:27:54.110Z,50.50
2019-01-26T02:28:54.138Z,51.10
2019-01-26T02:29:54.101Z,48.20
2019-01-26T02:30:54.075Z,51.40
2019-01-26T02:31:54.070Z,51.70
2019-01-26T02:32:54.748Z,52.00
2019-01-26T02:33:54.603Z,50.70
2019-01-26T02:34:54.098Z,48.90
2019-01-26T02:35:54.081Z,55.80
2019-01-26T02:36:54.029Z,59.50
2019-01-26T02:37:53.999Z,59.80
2019-01-26T02:38:53.997Z,57.80
2019-01-26T02:39:53.980Z,58.40
2019-01-26T02:40:54.007Z,58.80
2019-01-26T02:41:53.951Z,63.30
2019-01-26T02:42:53.946Z,64.10
2019-01-26T02:43:53.933Z,60.10
2019-01-26T02:44:53.919Z,62.30
2019-01-26T02:45:53.911Z,62.50
2019-01-26T02:46:58.028Z,61.30
2019-01-26T02:47:53.887Z,66.30
2019-01-26T02:48:53.881Z,66.10
2019-01-26T02:49:53.868Z,60.00
2019-01-26T02:50:53.869Z,61.90
2019-01-26T02:51:53.892Z,63.00
2019-01-26T02:52:53.836Z,59.40
2019-01-26T02:53:53.822Z,59.10
2019-01-26T02:54:53.814Z,67.70
2019-01-26T02:55:53.839Z,61.50
2019-01-26T02:56:53.798Z,55.80
2019-01-26T02:57:53.787Z,62.50
2019-01-26T02:58:53.767Z,59.40
2019-01-26T02:59:53.762Z,61.30
2019-01-26T03:00:53.744Z,57.90
2019-01-26T03:01:53.742Z,62.50
2019-01-26T03:02:53.726Z,59.30
2019-01-26T03:03:53.715Z,59.00
2019-01-26T03:04:53.704Z,65.80
2019-01-26T03:05:53.694Z,62.80
2019-01-26T03:06:53.716Z,59.90
2019-01-26T03:07:53.672Z,63.40
2019-01-26T03:08:53.661Z,58.30
2019-01-26T03:09:53.653Z,61.70
2019-01-26T03:10:53.681Z,56.10
2019-01-26T03:11:53.630Z,61.60
2019-01-26T03:12:53.617Z,68.70
2019-01-26T03:13:53.606Z,64.00
2019-01-26T03:14:53.592Z,61.00
2019-01-26T03:15:53.579Z,67.50
2019-01-26T03:16:53.601Z,64.30
2019-01-26T03:17:53.601Z,59.90
2019-01-26T03:18:53.550Z,63.40
2019-01-26T03:19:53.536Z,68.40
2019-01-26T03:20:53.539Z,69.30
2019-01-26T03:21:53.521Z,70.70
2019-01-26T03:22:53.658Z,69.30
2019-01-26T03:23:53.520Z,63.30
2019-01-26T03:24:53.484Z,71.90
2019-01-26T03:25:53.472Z,67.00
2019-01-26T03:26:53.464Z,68.90
2019-01-26T03:27:53.587Z,66.60
2019-01-26T03:28:53.438Z,74.40
2019-01-26T03:29:53.435Z,63.80
2019-01-26T03:30:53.423Z,73.70
2019-01-26T03:31:53.405Z,67.40
2019-01-26T03:32:53.413Z,69.10
2019-01-26T03:33:53.417Z,66.80
2019-01-26T03:34:53.372Z,70.30
2019-01-26T03:35:53.406Z,69.20
2019-01-26T03:36:53.358Z,68.00
2019-01-26T03:37:53.356Z,63.80
2019-01-26T03:38:54.728Z,67.10
2019-01-26T03:39:53.323Z,74.10
2019-01-26T03:40:53.309Z,74.20
2019-01-26T03:41:53.295Z,70.80
2019-01-26T03:42:53.311Z,71.90
2019-01-26T03:43:53.276Z,73.80
2019-01-26T03:44:53.304Z,68.60
2019-01-26T03:45:53.252Z,68.50
2019-01-26T03:46:53.250Z,67.70
2019-01-26T03:47:53.289Z,67.80
2019-01-26T03:48:53.220Z,74.10
2019-01-26T03:49:53.724Z,75.10
2019-01-26T03:50:53.208Z,74.50
2019-01-26T03:51:53.188Z,70.10
2019-01-26T03:52:53.235Z,67.00
2019-01-26T03:53:53.212Z,69.10
2019-01-26T03:54:53.156Z,72.40
2019-01-26T03:55:53.161Z,65.90
2019-01-26T03:56:53.137Z,66.90
2019-01-26T03:57:53.129Z,66.60
2019-01-26T03:58:53.110Z,71.60
2019-01-26T03:59:53.140Z,65.80
2019-01-26T04:00:53.103Z,68.40
2019-01-26T04:01:53.081Z,65.20
2019-01-26T04:02:53.074Z,68.80
2019-01-26T04:03:53.103Z,69.40
2019-01-26T04:04:53.045Z,74.80
2019-01-26T04:05:53.041Z,64.90
2019-01-26T04:06:53.024Z,66.50
2019-01-26T04:07:53.017Z,66.10
2019-01-26T04:08:53.049Z,64.40
2019-01-26T04:09:53.008Z,69.30
2019-01-26T04:10:53.632Z,66.10
2019-01-26T04:11:52.967Z,69.40
2019-01-26T04:12:53.047Z,64.90
2019-01-26T04:13:52.955Z,66.10
2019-01-26T04:14:53.064Z,61.70
2019-01-26T04:15:52.930Z,69.50
2019-01-26T04:16:52.915Z,64.80
2019-01-26T04:17:52.909Z,65.80
2019-01-26T04:18:52.899Z,66.60
2019-01-26T04:19:52.882Z,61.00
2019-01-26T04:20:52.884Z,65.20
2019-01-26T04:21:52.860Z,66.60
2019-01-26T04:22:52.874Z,66.10
2019-01-26T04:23:52.843Z,65.80
2019-01-26T04:24:52.887Z,67.50
2019-01-26T04:25:52.820Z,69.40
2019-01-26T04:26:52.817Z,70.30
2019-01-26T04:27:52.796Z,77.30
2019-01-26T04:28:52.786Z,74.20
2019-01-26T04:29:52.786Z,75.60
2019-01-26T04:30:52.810Z,71.20
2019-01-26T04:31:52.750Z,68.90
2019-01-26T04:32:52.747Z,65.30
2019-01-26T04:33:52.731Z,71.50
2019-01-26T04:34:52.720Z,68.70
2019-01-26T04:35:52.753Z,65.70
2019-01-26T04:36:52.697Z,70.00
2019-01-26T04:37:52.686Z,63.50
2019-01-26T04:38:52.741Z,67.30
2019-01-26T04:39:52.669Z,64.30
2019-01-26T04:40:52.654Z,69.80
2019-01-26T04:41:52.641Z,66.00
2019-01-26T04:42:52.644Z,69.30
2019-01-26T04:43:52.621Z,65.40
2019-01-26T04:44:52.657Z,66.20
2019-01-26T04:45:52.606Z,65.60
2019-01-26T04:46:52.591Z,64.10
2019-01-26T04:47:52.587Z,65.70
2019-01-26T04:48:52.580Z,67.50
2019-01-26T04:49:52.560Z,64.00
2019-01-26T04:50:52.589Z,68.40
2019-01-26T04:51:52.537Z,64.90
2019-01-26T04:52:52.527Z,67.30
2019-01-26T04:53:52.515Z,68.70
2019-01-26T04:54:52.504Z,77.80
2019-01-26T04:55:52.494Z,75.80
2019-01-26T04:56:53.214Z,76.70
2019-01-26T04:57:52.466Z,74.20
2019-01-26T04:58:52.462Z,70.20
2019-01-26T04:59:52.448Z,78.80
2019-01-26T05:00:52.439Z,79.50
2019-01-26T05:01:52.423Z,77.30
2019-01-26T05:02:52.434Z,69.70
2019-01-26T05:03:52.411Z,77.60
2019-01-26T05:04:52.411Z,77.60
2019-01-26T05:05:52.386Z,76.30
2019-01-26T05:06:52.370Z,74.20
2019-01-26T05:07:52.408Z,79.40
2019-01-26T05:08:52.352Z,79.20
2019-01-26T05:09:52.335Z,76.50
2019-01-26T05:10:52.328Z,77.10
2019-01-26T05:11:52.324Z,75.90
2019-01-26T05:12:52.313Z,77.00
2019-01-26T05:13:52.310Z,71.30
2019-01-26T05:14:52.295Z,73.00
2019-01-26T05:15:52.273Z,71.30
2019-01-26T05:16:52.269Z,73.00
2019-01-26T05:17:52.268Z,74.00
2019-01-26T05:18:52.306Z,69.90
2019-01-26T05:19:52.234Z,70.30
2019-01-26T05:20:52.220Z,72.60
2019-01-26T05:21:52.210Z,81.20
2019-01-26T05:22:52.202Z,81.80
2019-01-26T05:23:52.191Z,72.20
2019-01-26T05:24:52.186Z,74.50
2019-01-26T05:25:52.164Z,74.00
2019-01-26T05:26:52.150Z,80.00
2019-01-26T05:27:52.152Z,73.20
2019-01-26T05:28:52.178Z,81.00
2019-01-26T05:29:52.139Z,81.60
2019-01-26T05:30:52.112Z,85.90
2019-01-26T05:31:52.098Z,90.00
2019-01-26T05:32:52.093Z,87.60
2019-01-26T05:33:52.082Z,86.60
2019-01-26T05:34:52.137Z,94.30
2019-01-26T05:35:52.059Z,85.80
2019-01-26T05:36:52.047Z,80.20
2019-01-26T05:37:52.037Z,78.70
2019-01-26T05:38:52.021Z,77.90
2019-01-26T05:39:52.008Z,80.60
2019-01-26T05:40:52.039Z,85.60
2019-01-26T05:41:51.993Z,88.50
2019-01-26T05:42:51.980Z,81.80
2019-01-26T05:43:51.973Z,101.50
2019-01-26T05:44:51.960Z,90.80
2019-01-26T05:45:51.972Z,85.80
2019-01-26T05:46:51.947Z,81.30
2019-01-26T05:47:51.923Z,83.00
2019-01-26T05:48:51.914Z,88.20
2019-01-26T05:49:51.906Z,92.40
2019-01-26T05:50:51.943Z,86.90
2019-01-26T05:51:51.900Z,88.20
2019-01-26T05:52:51.907Z,88.30
2019-01-26T05:53:51.871Z,92.00
2019-01-26T05:54:51.857Z,85.30
2019-01-26T05:55:51.838Z,88.20
2019-01-26T05:56:51.855Z,93.10
2019-01-26T05:57:51.824Z,89.60
2019-01-26T05:58:51.805Z,89.10
2019-01-26T05:59:51.796Z,90.60
2019-01-26T06:00:51.785Z,93.30
2019-01-26T06:01:51.833Z,93.40
2019-01-26T06:02:51.764Z,88.70
2019-01-26T06:03:51.750Z,94.10
2019-01-26T06:04:51.743Z,95.40
2019-01-26T06:05:51.759Z,100.90
2019-01-26T06:06:51.723Z,95.30
2019-01-26T06:07:51.710Z,91.60
2019-01-26T06:08:51.698Z,92.60
2019-01-26T06:09:51.706Z,91.80
2019-01-26T06:10:51.721Z,98.00
2019-01-26T06:11:51.661Z,103.70
2019-01-26T06:12:51.699Z,101.90
2019-01-26T06:13:51.638Z,97.90
2019-01-26T06:14:51.636Z,96.40
2019-01-26T06:15:51.644Z,96.60
2019-01-26T06:16:51.614Z,98.20
2019-01-26T06:17:55.262Z,97.90
2019-01-26T06:18:51.590Z,97.20
2019-01-26T06:19:51.581Z,99.20
2019-01-26T06:20:51.568Z,109.40
2019-01-26T06:21:51.555Z,100.90
2019-01-26T06:22:51.607Z,103.40
2019-01-26T06:23:51.535Z,108.10
2019-01-26T06:24:51.524Z,109.80
2019-01-26T06:25:51.513Z,106.20
2019-01-26T06:26:52.135Z,102.70
2019-01-26T06:27:51.491Z,103.70
2019-01-26T06:28:51.485Z,104.20
2019-01-26T06:29:51.466Z,103.70
2019-01-26T06:30:51.455Z,102.40
2019-01-26T06:31:51.449Z,98.10
2019-01-26T06:32:51.438Z,100.50
2019-01-26T06:33:51.470Z,101.40
2019-01-26T06:34:51.411Z,100.60
2019-01-26T06:35:51.400Z,99.60
2019-01-26T06:36:51.393Z,102.70
2019-01-26T06:37:51.377Z,105.70
2019-01-26T06:38:51.371Z,105.10
2019-01-26T06:39:51.423Z,101.50
2019-01-26T06:40:51.353Z,97.70
2019-01-26T06:41:51.333Z,100.60
2019-01-26T06:42:51.330Z,96.80
2019-01-26T06:43:51.313Z,93.50
2019-01-26T06:44:51.303Z,96.50
2019-01-26T06:45:51.350Z,97.60
2019-01-26T06:46:51.282Z,90.80
2019-01-26T06:47:51.269Z,96.70
2019-01-26T06:48:51.269Z,100.50
2019-01-26T06:49:51.252Z,95.70
2019-01-26T06:50:51.237Z,93.20
2019-01-26T06:51:51.272Z,98.20
2019-01-26T06:52:51.215Z,96.80
2019-01-26T06:53:51.205Z,106.90
2019-01-26T06:54:51.198Z,97.80
2019-01-26T06:55:51.182Z,108.80
2019-01-26T06:56:51.177Z,99.60
2019-01-26T06:57:51.191Z,101.20
2019-01-26T06:58:51.150Z,103.70
2019-01-26T06:59:51.146Z,98.20
2019-01-26T07:00:51.156Z,93.80
2019-01-26T07:01:51.116Z,98.80
2019-01-26T07:02:51.180Z,94.10
2019-01-26T07:03:51.209Z,104.80
2019-01-26T07:04:51.085Z,106.00
2019-01-26T07:05:51.075Z,105.80
2019-01-26T07:06:51.644Z,98.40
2019-01-26T07:07:51.055Z,104.40
2019-01-26T07:08:51.089Z,107.80
2019-01-26T07:09:51.031Z,108.00
2019-01-26T07:10:51.023Z,122.30
2019-01-26T07:11:51.010Z,102.30
2019-01-26T07:12:51.008Z,111.40
2019-01-26T07:13:51.037Z,123.80
2019-01-26T07:14:50.978Z,127.50
2019-01-26T07:15:50.984Z,117.50
2019-01-26T07:16:50.955Z,119.30
2019-01-26T07:17:50.955Z,119.80
2019-01-26T07:18:50.933Z,122.90
2019-01-26T07:19:50.969Z,119.30
2019-01-26T07:20:50.929Z,115.90
2019-01-26T07:21:50.908Z,121.30
2019-01-26T07:22:50.921Z,126.90
2019-01-26T07:23:50.879Z,139.90
2019-01-26T07:24:50.915Z,138.70
2019-01-26T07:25:50.859Z,135.70
2019-01-26T07:26:50.856Z,129.10
2019-01-26T07:27:50.836Z,134.00
2019-01-26T07:28:50.843Z,147.30
2019-01-26T07:29:50.842Z,141.60
2019-01-26T07:30:50.840Z,129.40
2019-01-26T07:31:50.795Z,130.10
2019-01-26T07:32:50.788Z,157.70
2019-01-26T07:33:50.773Z,137.40
2019-01-26T07:34:50.766Z,139.60
2019-01-26T07:35:50.799Z,131.60
2019-01-26T07:36:50.786Z,148.00
2019-01-26T07:37:50.796Z,140.00
2019-01-26T07:38:50.722Z,153.40
2019-01-26T07:39:50.708Z,150.20
2019-01-26T07:40:50.705Z,148.50
2019-01-26T07:41:50.683Z,160.60
2019-01-26T07:42:50.673Z,144.60
2019-01-26T07:43:50.677Z,159.00
2019-01-26T07:44:50.669Z,163.70
2019-01-26T07:45:50.641Z,149.20
2019-01-26T07:46:50.699Z,158.40
2019-01-26T07:47:50.620Z,152.60
2019-01-26T07:48:50.617Z,153.90
2019-01-26T07:49:50.602Z,156.50
2019-01-26T07:50:50.593Z,158.20
2019-01-26T07:51:50.575Z,142.30
2019-01-26T07:52:50.685Z,146.80
2019-01-26T07:53:50.559Z,158.60
2019-01-26T07:54:50.614Z,147.00
2019-01-26T07:55:50.534Z,158.90
2019-01-26T07:56:50.554Z,159.40
2019-01-26T07:57:50.543Z,147.80
2019-01-26T07:58:50.534Z,175.30
2019-01-26T07:59:50.488Z,171.70
2019-01-26T08:00:50.481Z,170.60
2019-01-26T08:01:50.467Z,165.60
2019-01-26T08:02:50.505Z,144.00
2019-01-26T08:03:50.450Z,160.00
2019-01-26T08:04:50.458Z,152.50
2019-01-26T08:05:50.428Z,150.70
2019-01-26T08:06:50.415Z,149.70
2019-01-26T08:07:50.452Z,160.50
2019-01-26T08:08:50.439Z,162.30
2019-01-26T08:09:50.384Z,168.70
2019-01-26T08:10:50.374Z,158.90
2019-01-26T08:11:50.358Z,200.40
2019-01-26T08:12:50.356Z,166.10
2019-01-26T08:13:50.352Z,183.60
2019-01-26T08:14:50.325Z,189.30
2019-01-26T08:15:50.356Z,174.20
2019-01-26T08:16:50.308Z,161.70
2019-01-26T08:17:50.293Z,152.80
2019-01-26T08:18:50.289Z,166.00
2019-01-26T08:19:50.277Z,155.10
2019-01-26T08:20:50.275Z,131.60
2019-01-26T08:21:50.342Z,153.60
2019-01-26T08:22:50.242Z,149.40
2019-01-26T08:23:50.226Z,165.00
2019-01-26T08:24:50.223Z,163.30
2019-01-26T08:25:50.212Z,144.30
2019-01-26T08:26:50.215Z,170.60
2019-01-26T08:27:50.182Z,169.50
2019-01-26T08:28:50.172Z,133.80
2019-01-26T08:29:50.162Z,145.30
2019-01-26T08:30:50.148Z,156.20
2019-01-26T08:31:50.137Z,138.30
2019-01-26T08:32:50.138Z,146.10
2019-01-26T08:33:50.115Z,140.00
2019-01-26T08:34:50.105Z,137.30
2019-01-26T08:35:50.098Z,128.20
2019-01-26T08:36:50.085Z,135.20
2019-01-26T08:37:50.088Z,124.00
2019-01-26T08:38:50.066Z,133.10
2019-01-26T08:39:50.055Z,135.50
2019-01-26T08:40:50.053Z,128.20
2019-01-26T08:41:50.031Z,140.70
2019-01-26T08:42:50.032Z,141.20
2019-01-26T08:43:51.285Z,132.20
2019-01-26T08:44:50.000Z,115.80
2019-01-26T08:45:49.999Z,115.90
2019-01-26T08:46:49.990Z,136.30
2019-01-26T08:47:49.967Z,131.30
2019-01-26T08:48:49.961Z,145.30
2019-01-26T08:49:49.943Z,136.50
2019-01-26T08:50:49.933Z,123.50
2019-01-26T08:51:49.950Z,116.40
2019-01-26T08:52:49.913Z,113.60
2019-01-26T08:53:49.894Z,111.80
2019-01-26T08:54:49.896Z,118.10
2019-01-26T08:55:49.888Z,136.80
2019-01-26T08:56:49.863Z,112.40
2019-01-26T08:57:49.868Z,125.00
2019-01-26T08:58:49.847Z,129.10
2019-01-26T08:59:49.839Z,138.60
2019-01-26T09:00:49.818Z,124.50
2019-01-26T09:01:49.815Z,131.20
2019-01-26T09:02:49.800Z,137.00
2019-01-26T09:03:49.788Z,117.20
2019-01-26T09:04:49.780Z,131.50
2019-01-26T09:05:49.762Z,131.40
2019-01-26T09:06:49.769Z,130.40
2019-01-26T09:07:49.750Z,126.00
2019-01-26T09:08:49.736Z,119.40
2019-01-26T09:09:49.720Z,120.20
2019-01-26T09:10:49.717Z,122.10
2019-01-26T09:11:49.700Z,120.00
2019-01-26T09:12:49.713Z,116.00
2019-01-26T09:13:49.675Z,115.90
2019-01-26T09:14:49.669Z,111.30
2019-01-26T09:15:49.653Z,110.60
2019-01-26T09:16:49.647Z,104.30
2019-01-26T09:17:49.632Z,110.50
2019-01-26T09:18:49.634Z,111.20
2019-01-26T09:19:49.644Z,110.50
2019-01-26T09:20:49.598Z,110.80
2019-01-26T09:21:49.582Z,120.30
2019-01-26T09:22:49.575Z,102.10
2019-01-26T09:23:49.566Z,97.10
2019-01-26T09:24:49.555Z,104.40
2019-01-26T09:25:49.613Z,99.30
2019-01-26T09:26:49.536Z,109.80
2019-01-26T09:27:49.529Z,97.50
2019-01-26T09:28:49.509Z,106.50
2019-01-26T09:29:49.500Z,98.40
2019-01-26T09:30:49.530Z,94.50
2019-01-26T09:31:49.484Z,96.30
2019-01-26T09:32:49.465Z,90.20
2019-01-26T09:33:49.458Z,81.00
2019-01-26T09:34:49.449Z,93.20
2019-01-26T09:35:49.437Z,80.70
2019-01-26T09:36:49.449Z,86.50
2019-01-26T09:37:49.415Z,82.10
2019-01-26T09:38:49.407Z,93.30
2019-01-26T09:39:49.393Z,88.80
2019-01-26T09:40:49.393Z,85.80
2019-01-26T09:41:49.365Z,87.10
2019-01-26T09:42:49.357Z,88.10
2019-01-26T09:43:49.384Z,77.60
2019-01-26T09:44:49.338Z,73.90
2019-01-26T09:45:49.361Z,76.50
2019-01-26T09:46:49.315Z,77.70
2019-01-26T09:47:49.299Z,82.40
2019-01-26T09:48:49.307Z,77.00
2019-01-26T09:49:49.279Z,82.70
2019-01-26T09:50:49.277Z,78.70
2019-01-26T09:51:49.318Z,74.60
2019-01-26T09:52:49.252Z,83.30
2019-01-26T09:53:49.244Z,87.60
2019-01-26T09:54:49.224Z,80.90
2019-01-26T09:55:49.227Z,81.90
2019-01-26T09:56:49.208Z,74.80
2019-01-26T09:57:49.213Z,80.90
2019-01-26T09:58:49.187Z,68.90
2019-01-26T09:59:49.175Z,90.00
2019-01-26T10:00:49.163Z,84.70
2019-01-26T10:01:49.147Z,86.50
2019-01-26T10:02:49.135Z,72.70
2019-01-26T10:03:49.460Z,73.50
2019-01-26T10:04:49.115Z,81.40
2019-01-26T10:05:49.110Z,76.80
2019-01-26T10:06:49.093Z,65.20
2019-01-26T10:07:49.085Z,75.70
2019-01-26T10:08:49.201Z,68.20
2019-01-26T10:09:49.061Z,77.30
2019-01-26T10:10:49.054Z,60.70
2019-01-26T10:11:49.038Z,56.80
2019-01-26T10:12:49.030Z,56.40
2019-01-26T10:13:49.031Z,51.50
2019-01-26T10:14:49.051Z,64.60
2019-01-26T10:15:49.007Z,73.30
2019-01-26T10:16:48.988Z,67.20
2019-01-26T10:17:48.987Z,54.70
2019-01-26T10:18:53.499Z,69.10
2019-01-26T10:19:49.949Z,60.50
2019-01-26T10:20:48.956Z,55.10
2019-01-26T10:21:48.927Z,62.80
2019-01-26T10:22:48.925Z,70.10
2019-01-26T10:23:48.904Z,70.50
2019-01-26T10:24:48.904Z,66.90
2019-01-26T10:25:49.067Z,83.00
2019-01-26T10:26:48.872Z,66.50
2019-01-26T10:27:48.875Z,61.50
2019-01-26T10:28:48.859Z,62.80
2019-01-26T10:29:48.845Z,52.50
2019-01-26T10:30:49.183Z,51.50
2019-01-26T10:31:48.817Z,58.30
2019-01-26T10:32:48.807Z,50.30
2019-01-26T10:33:48.797Z,52.10
2019-01-26T10:34:48.854Z,57.60
2019-01-26T10:35:48.790Z,55.60
2019-01-26T10:36:48.825Z,61.00
2019-01-26T10:37:48.761Z,65.20
2019-01-26T10:38:48.744Z,60.60
2019-01-26T10:39:48.733Z,53.80
2019-01-26T10:40:48.724Z,50.60
2019-01-26T10:41:48.746Z,44.00
2019-01-26T10:42:48.695Z,47.20
2019-01-26T10:43:48.687Z,52.00
2019-01-26T10:44:49.318Z,46.70
2019-01-26T10:45:48.663Z,43.10
2019-01-26T10:46:48.664Z,39.10
2019-01-26T10:47:48.689Z,40.90
2019-01-26T10:48:48.649Z,33.40
2019-01-26T10:49:48.621Z,40.40
2019-01-26T10:50:48.614Z,37.80
2019-01-26T10:51:48.601Z,44.60
2019-01-26T10:52:48.811Z,39.70
2019-01-26T10:53:48.718Z,38.20
2019-01-26T10:54:48.567Z,49.80
2019-01-26T10:55:48.559Z,47.10
2019-01-26T10:56:48.541Z,44.50
2019-01-26T10:57:48.646Z,43.50
2019-01-26T10:58:48.532Z,38.80
2019-01-26T10:59:48.514Z,37.70
2019-01-26T11:00:48.507Z,46.80
2019-01-26T11:01:51.135Z,42.80
2019-01-26T11:02:48.477Z,49.70
2019-01-26T11:03:48.481Z,40.30
2019-01-26T11:04:48.462Z,34.70
2019-01-26T11:05:48.449Z,35.70
2019-01-26T11:06:48.431Z,30.20
2019-01-26T11:07:48.434Z,31.90
2019-01-26T11:08:48.424Z,36.20
2019-01-26T11:09:48.402Z,31.60
2019-01-26T11:10:48.393Z,28.30
2019-01-26T11:11:48.375Z,33.90
2019-01-26T11:12:48.373Z,30.90
2019-01-26T11:13:48.411Z,31.10
2019-01-26T11:14:48.347Z,33.70
2019-01-26T11:15:48.366Z,33.70
2019-01-26T11:16:48.328Z,34.90
2019-01-26T11:17:48.311Z,33.40
2019-01-26T11:18:48.323Z,32.60
2019-01-26T11:19:48.319Z,33.00
2019-01-26T11:20:48.279Z,33.20
2019-01-26T11:21:48.281Z,29.60
2019-01-26T11:22:48.256Z,25.60
2019-01-26T11:23:48.245Z,27.60
2019-01-26T11:24:48.285Z,28.40
2019-01-26T11:25:48.227Z,24.00
2019-01-26T11:26:49.408Z,25.10
2019-01-26T11:27:48.201Z,26.80
2019-01-26T11:28:48.196Z,29.70
2019-01-26T11:29:48.186Z,25.60
2019-01-26T11:30:48.225Z,22.10
2019-01-26T11:31:48.174Z,24.20
2019-01-26T11:32:48.176Z,24.70
2019-01-26T11:33:48.142Z,24.70
2019-01-26T11:34:48.138Z,25.40
2019-01-26T11:35:48.113Z,27.00
2019-01-26T11:36:48.231Z,25.00
2019-01-26T11:37:48.206Z,25.90
2019-01-26T11:38:48.090Z,30.60
2019-01-26T11:39:48.073Z,26.40
2019-01-26T11:40:48.080Z,24.10
2019-01-26T11:41:48.067Z,27.90
2019-01-26T11:42:48.054Z,28.10
2019-01-26T11:43:48.121Z,24.70
2019-01-26T11:44:48.024Z,23.00
2019-01-26T11:45:48.011Z,23.20
2019-01-26T11:46:48.004Z,25.10
2019-01-26T11:47:47.980Z,26.70
2019-01-26T11:48:47.970Z,23.00
2019-01-26T11:49:47.962Z,22.20
2019-01-26T11:50:47.951Z,27.40
2019-01-26T11:51:47.960Z,24.20
2019-01-26T11:52:47.930Z,21.90
2019-01-26T11:53:47.921Z,29.50
2019-01-26T11:54:47.904Z,24.90
2019-01-26T11:55:47.898Z,23.20
2019-01-26T11:56:47.902Z,23.60
2019-01-26T11:57:47.922Z,22.50
2019-01-26T11:58:47.864Z,20.00
2019-01-26T11:59:47.855Z,18.10
2019-01-26T12:00:47.841Z,20.00
2019-01-26T12:01:47.825Z,21.00
2019-01-26T12:02:47.820Z,17.20
2019-01-26T12:03:47.819Z,18.50
2019-01-26T12:04:47.799Z,20.60
2019-01-26T12:05:47.784Z,25.00
2019-01-26T12:06:47.771Z,22.30
2019-01-26T12:07:47.776Z,19.10
2019-01-26T12:08:47.756Z,19.40
2019-01-26T12:09:47.752Z,26.40
2019-01-26T12:10:47.732Z,25.00
2019-01-26T12:11:47.729Z,23.60
2019-01-26T12:12:47.748Z,24.00
2019-01-26T12:13:47.693Z,23.50
2019-01-26T12:14:47.700Z,20.00
2019-01-26T12:15:47.694Z,17.80
2019-01-26T12:16:47.663Z,23.40
2019-01-26T12:17:47.654Z,22.90
2019-01-26T12:18:47.802Z,21.90
2019-01-26T12:19:47.673Z,20.50
2019-01-26T12:20:47.625Z,23.90
2019-01-26T12:21:47.662Z,22.70
2019-01-26T12:22:47.603Z,24.30
2019-01-26T12:23:47.587Z,26.00
2019-01-26T12:24:47.572Z,24.40
2019-01-26T12:25:47.667Z,22.30
2019-01-26T12:26:47.560Z,21.60
2019-01-26T12:27:47.546Z,20.40
2019-01-26T12:28:47.537Z,22.60
2019-01-26T12:29:47.522Z,24.70
2019-01-26T12:30:47.569Z,23.00
2019-01-26T12:31:47.502Z,19.30
2019-01-26T12:32:47.486Z,18.10
2019-01-26T12:33:47.484Z,20.10
2019-01-26T12:34:47.471Z,16.40
2019-01-26T12:35:47.464Z,18.00
2019-01-26T12:36:47.488Z,20.30
2019-01-26T12:37:47.436Z,17.30
2019-01-26T12:38:47.419Z,16.30
2019-01-26T12:39:47.410Z,16.20
2019-01-26T12:40:47.402Z,14.40
2019-01-26T12:41:47.386Z,17.30
2019-01-26T12:42:47.396Z,18.00
2019-01-26T12:43:47.364Z,17.00
2019-01-26T12:44:47.359Z,17.60
2019-01-26T12:45:47.347Z,15.20
2019-01-26T12:46:47.336Z,16.70
2019-01-26T12:47:47.336Z,14.70